createdAt,value
2022-12-12T00:00:26.648Z,54.55
2022-12-12T00:02:58.275Z,58.13
2022-12-12T00:05:28.498Z,60.60
2022-12-12T00:07:58.880Z,63.20
2022-12-12T00:10:28.566Z,65.25
2022-12-12T00:12:58.157Z,61.03
2022-12-12T00:15:29.061Z,61.55
2022-12-12T00:17:58.814Z,62.13
2022-12-12T00:20:28.470Z,65.07
2022-12-12T00:22:58.058Z,62.70
2022-12-12T00:25:27.658Z,63.83
2022-12-12T00:27:57.251Z,65.75
2022-12-12T00:30:26.957Z,63.70
2022-12-12T00:32:56.510Z,61.65
2022-12-12T00:35:26.423Z,58.30
2022-12-12T00:37:56.025Z,60.40
2022-12-12T00:40:25.686Z,60.25
2022-12-12T00:42:55.301Z,59.35
2022-12-12T00:45:24.586Z,57.85
2022-12-12T00:47:54.501Z,59.38
2022-12-12T00:50:24.045Z,58.97
2022-12-12T00:52:53.747Z,56.45
2022-12-12T00:55:23.406Z,54.95
2022-12-12T00:57:53.299Z,52.85
2022-12-12T01:00:24.006Z,52.22
2022-12-12T01:02:53.886Z,51.55
2022-12-12T01:05:24.331Z,50.25
2022-12-12T01:07:55.150Z,49.92
2022-12-12T01:10:25.113Z,50.38
2022-12-12T01:12:54.830Z,49.28
2022-12-12T01:15:24.390Z,45.38
2022-12-12T01:17:55.025Z,47.60
2022-12-12T01:20:29.070Z,47.85
2022-12-12T01:22:59.260Z,55.30
2022-12-12T01:25:28.732Z,53.83
2022-12-12T01:27:58.223Z,54.53
2022-12-12T01:30:31.026Z,52.45
2022-12-12T01:33:00.685Z,54.00
2022-12-12T01:35:31.966Z,61.13
2022-12-12T01:38:01.999Z,52.85
2022-12-12T01:40:32.970Z,53.05
2022-12-12T01:43:02.529Z,49.00
2022-12-12T01:46:13.683Z,47.42
2022-12-12T01:49:02.129Z,45.40
2022-12-12T01:51:32.623Z,45.67
2022-12-12T01:54:17.243Z,45.10
2022-12-12T01:56:52.347Z,44.53
2022-12-12T01:59:24.057Z,45.13
2022-12-12T02:01:55.320Z,43.78
2022-12-12T02:04:27.137Z,44.17
2022-12-12T02:06:57.889Z,44.28
2022-12-12T02:09:31.035Z,41.83
2022-12-12T02:12:00.795Z,42.15
2022-12-12T02:14:53.403Z,42.70
2022-12-12T02:17:52.699Z,41.10
2022-12-12T02:20:37.069Z,40.80
2022-12-12T02:23:32.511Z,46.65
2022-12-12T02:26:09.416Z,55.75
2022-12-12T02:29:06.716Z,60.50
2022-12-12T02:31:42.364Z,65.50
2022-12-12T02:34:27.846Z,69.22
2022-12-12T02:37:00.928Z,65.55
2022-12-12T02:40:20.921Z,63.45
2022-12-12T02:43:13.833Z,71.78
2022-12-12T02:45:47.127Z,72.40
2022-12-12T02:48:30.737Z,84.05
2022-12-12T02:51:04.372Z,69.63
2022-12-12T02:53:34.765Z,69.88
2022-12-12T02:56:07.648Z,70.47
2022-12-12T02:58:40.466Z,68.82
2022-12-12T03:01:40.937Z,72.85
2022-12-12T03:04:54.500Z,80.47
2022-12-12T03:07:49.277Z,80.43
2022-12-12T03:10:28.085Z,70.50
2022-12-12T03:13:19.767Z,60.45
2022-12-12T03:16:15.949Z,54.58
2022-12-12T03:18:57.436Z,53.40
2022-12-12T03:22:25.710Z,48.85
2022-12-12T03:25:05.550Z,43.95
2022-12-12T03:27:55.902Z,43.38
2022-12-12T03:30:25.905Z,45.78
2022-12-12T03:33:08.585Z,45.25
2022-12-12T03:38:15.723Z,43.88
2022-12-12T03:40:50.532Z,47.25
2022-12-12T03:43:33.632Z,46.75
2022-12-12T03:46:23.704Z,41.50
2022-12-12T03:49:03.051Z,37.22
2022-12-12T03:51:37.965Z,35.10
2022-12-12T03:54:54.994Z,31.45
2022-12-12T03:57:34.377Z,30.80
2022-12-12T04:00:08.940Z,30.80
2022-12-12T04:03:03.336Z,31.08
2022-12-12T04:06:26.728Z,32.03
2022-12-12T04:09:23.299Z,30.80
2022-12-12T04:12:18.065Z,34.45
2022-12-12T04:15:06.046Z,34.63
2022-12-12T04:17:58.662Z,36.40
2022-12-12T04:20:55.359Z,34.97
2022-12-12T04:23:35.911Z,37.30
2022-12-12T04:26:29.721Z,42.05
2022-12-12T04:29:31.451Z,58.85
2022-12-12T04:32:15.513Z,40.95
2022-12-12T04:35:03.461Z,36.63
2022-12-12T04:37:40.596Z,36.55
2022-12-12T04:40:14.570Z,28.45
2022-12-12T04:42:55.108Z,27.77
2022-12-12T04:45:30.522Z,27.80
2022-12-12T04:48:02.728Z,28.88
2022-12-12T04:50:34.676Z,26.52
2022-12-12T04:53:18.411Z,25.80
2022-12-12T04:55:58.148Z,25.17
2022-12-12T04:58:29.111Z,24.63
2022-12-12T05:01:08.864Z,25.13
2022-12-12T05:03:44.941Z,27.15
2022-12-12T05:06:18.103Z,25.73
2022-12-12T05:08:55.004Z,26.27
2022-12-12T05:11:24.897Z,25.88
2022-12-12T05:13:54.714Z,28.60
2022-12-12T05:16:44.872Z,27.98
2022-12-12T05:19:15.146Z,30.30
2022-12-12T05:21:44.872Z,27.60
2022-12-12T05:24:14.481Z,28.63
2022-12-12T05:26:44.380Z,26.70
2022-12-12T05:29:14.882Z,27.02
2022-12-12T05:31:44.693Z,25.63
2022-12-12T05:34:14.016Z,25.98
2022-12-12T05:36:44.369Z,25.45
2022-12-12T05:39:13.932Z,26.55
2022-12-12T05:41:43.916Z,25.35
2022-12-12T05:44:13.283Z,26.73
2022-12-12T05:46:42.971Z,26.33
2022-12-12T05:49:12.615Z,27.60
2022-12-12T05:51:44.323Z,26.00
2022-12-12T05:54:15.329Z,27.88
2022-12-12T05:56:45.307Z,22.95
2022-12-12T05:59:16.223Z,21.45
2022-12-12T06:01:46.466Z,21.65
2022-12-12T06:04:17.087Z,23.20
2022-12-12T06:06:48.315Z,22.73
2022-12-12T06:09:17.967Z,21.98
2022-12-12T06:11:47.650Z,24.15
2022-12-12T06:14:17.858Z,24.80
2022-12-12T06:16:47.505Z,24.67
2022-12-12T06:19:17.306Z,24.35
2022-12-12T06:21:47.873Z,22.98
2022-12-12T06:24:18.340Z,27.23
2022-12-12T06:26:52.428Z,29.63
2022-12-12T06:29:22.585Z,26.80
2022-12-12T06:31:52.323Z,26.42
2022-12-12T06:34:21.977Z,23.80
2022-12-12T06:36:51.774Z,28.98
2022-12-12T06:39:21.518Z,22.35
2022-12-12T06:41:51.174Z,27.20
2022-12-12T06:44:20.802Z,24.20
2022-12-12T06:46:50.450Z,25.30
2022-12-12T06:49:20.509Z,22.02
2022-12-12T06:51:50.341Z,21.98
2022-12-12T06:54:20.894Z,20.75
2022-12-12T06:56:50.764Z,21.83
2022-12-12T06:59:20.927Z,21.98
2022-12-12T07:01:50.855Z,20.40
2022-12-12T07:04:21.757Z,24.77
2022-12-12T07:06:51.802Z,20.38
2022-12-12T07:09:22.151Z,21.30
2022-12-12T07:11:51.886Z,20.05
2022-12-12T07:14:24.557Z,19.52
2022-12-12T07:16:54.248Z,21.30
2022-12-12T07:19:24.448Z,21.50
2022-12-12T07:21:54.210Z,21.13
2022-12-12T07:24:23.813Z,18.67
2022-12-12T07:26:53.933Z,20.00
2022-12-12T07:29:23.715Z,22.48
2022-12-12T07:31:53.060Z,18.30
2022-12-12T07:34:24.730Z,18.45
2022-12-12T07:37:00.791Z,20.10
2022-12-12T07:42:35.754Z,20.35
2022-12-12T07:45:05.824Z,18.58
2022-12-12T07:47:36.253Z,18.05
2022-12-12T07:50:07.812Z,18.98
2022-12-12T07:52:38.545Z,18.55
2022-12-12T07:55:08.834Z,18.48
2022-12-12T07:57:39.305Z,19.75
2022-12-12T08:00:11.923Z,22.02
2022-12-12T08:02:42.684Z,16.90
2022-12-12T08:05:12.948Z,15.43
2022-12-12T08:07:43.764Z,16.40
2022-12-12T08:10:13.449Z,13.75
2022-12-12T08:12:43.020Z,16.45
2022-12-12T08:15:18.564Z,16.50
2022-12-12T08:17:49.047Z,17.85
2022-12-12T08:20:18.926Z,17.58
2022-12-12T08:22:48.558Z,14.57
2022-12-12T08:25:18.966Z,14.60
2022-12-12T08:27:48.640Z,16.30
2022-12-12T08:30:18.048Z,15.98
2022-12-12T08:32:47.950Z,19.20
2022-12-12T08:35:17.857Z,15.52
2022-12-12T08:37:47.611Z,16.42
2022-12-12T08:40:17.595Z,15.57
2022-12-12T08:42:47.697Z,16.60
2022-12-12T08:45:18.151Z,18.92
2022-12-12T08:47:48.043Z,20.48
2022-12-12T08:50:18.628Z,22.80
2022-12-12T08:52:48.316Z,18.90
2022-12-12T08:55:19.092Z,17.98
2022-12-12T08:57:49.241Z,19.02
2022-12-12T09:00:19.509Z,17.15
2022-12-12T09:02:49.356Z,16.98
2022-12-12T09:05:19.145Z,22.63
2022-12-12T09:07:49.124Z,23.35
2022-12-12T09:10:19.592Z,18.73
2022-12-12T09:12:49.747Z,19.55
2022-12-12T09:15:20.026Z,20.65
2022-12-12T09:17:49.863Z,23.08
2022-12-12T09:20:19.942Z,25.77
2022-12-12T09:22:49.830Z,21.98
2022-12-12T09:25:20.357Z,21.80
2022-12-12T09:27:50.941Z,19.05
2022-12-12T09:30:20.789Z,18.20
2022-12-12T09:32:51.133Z,16.02
2022-12-12T09:35:20.943Z,11.90
2022-12-12T09:37:50.853Z,11.18
2022-12-12T09:40:27.199Z,11.23
2022-12-12T09:42:57.664Z,10.57
2022-12-12T09:45:28.770Z,14.13
2022-12-12T09:48:04.324Z,12.00
2022-12-12T09:50:37.093Z,9.70
2022-12-12T09:53:15.399Z,13.50
2022-12-12T09:56:23.342Z,14.15
2022-12-12T09:58:57.268Z,12.23
2022-12-12T10:01:47.439Z,14.38
2022-12-12T10:04:41.881Z,14.50
2022-12-12T10:07:16.171Z,12.45
2022-12-12T10:09:53.824Z,12.30
2022-12-12T10:12:24.689Z,12.60
2022-12-12T10:15:03.347Z,15.88
2022-12-12T10:17:37.720Z,15.55
2022-12-12T10:20:30.468Z,17.10
2022-12-12T10:23:06.748Z,15.18
2022-12-12T10:25:53.846Z,14.43
2022-12-12T10:28:26.790Z,14.85
2022-12-12T10:31:15.123Z,12.55
2022-12-12T10:33:44.908Z,13.63
2022-12-12T10:36:24.574Z,13.05
2022-12-12T10:38:54.396Z,13.85
2022-12-12T10:41:41.936Z,15.75
2022-12-12T10:44:47.001Z,21.15
2022-12-12T10:47:17.676Z,16.23
2022-12-12T10:49:47.122Z,13.13
2022-12-12T10:52:23.805Z,12.13
2022-12-12T10:54:59.569Z,14.35
2022-12-12T10:57:35.795Z,20.15
2022-12-12T11:00:20.075Z,16.23
2022-12-12T11:02:50.559Z,15.95
2022-12-12T11:05:36.908Z,18.85
2022-12-12T11:08:31.562Z,20.55
2022-12-12T11:11:06.898Z,21.92
2022-12-12T11:13:48.820Z,24.35
2022-12-12T11:16:30.178Z,23.75
2022-12-12T11:19:09.234Z,25.95
2022-12-12T11:21:40.583Z,25.60
2022-12-12T11:24:16.180Z,22.90
2022-12-12T11:27:07.852Z,28.38
2022-12-12T11:29:51.826Z,26.77
2022-12-12T11:32:27.507Z,23.42
2022-12-12T11:35:22.932Z,25.27
2022-12-12T11:38:18.871Z,24.33
2022-12-12T11:41:10.979Z,24.23
2022-12-12T11:43:51.179Z,20.38
2022-12-12T11:46:26.083Z,19.25
2022-12-12T11:48:55.755Z,20.55
2022-12-12T11:51:39.617Z,22.15
2022-12-12T11:54:14.797Z,22.17
2022-12-12T11:56:52.335Z,23.88
2022-12-12T11:59:46.367Z,22.15
2022-12-12T12:02:51.789Z,21.95
2022-12-12T12:05:33.317Z,20.55
2022-12-12T12:08:32.974Z,18.48
2022-12-12T12:11:03.028Z,21.85
2022-12-12T12:13:53.069Z,20.23
2022-12-12T12:16:50.371Z,23.38
2022-12-12T12:19:49.038Z,24.67
2022-12-12T12:22:27.475Z,26.58
2022-12-12T12:25:09.359Z,29.95
2022-12-12T12:28:05.273Z,30.38
2022-12-12T12:31:10.560Z,36.15
2022-12-12T12:33:55.933Z,39.08
2022-12-12T12:36:41.642Z,42.58
2022-12-12T12:39:30.067Z,46.72
2022-12-12T12:42:11.222Z,46.70
2022-12-12T12:44:56.999Z,41.53
2022-12-12T12:47:29.896Z,39.00
2022-12-12T12:50:30.344Z,37.42
2022-12-12T12:53:18.567Z,36.05
2022-12-12T12:55:52.557Z,36.13
2022-12-12T12:58:32.770Z,36.25
2022-12-12T13:01:08.299Z,38.15
2022-12-12T13:03:49.699Z,34.50
2022-12-12T13:06:45.960Z,38.97
2022-12-12T13:09:37.342Z,41.63
2022-12-12T13:12:45.225Z,36.47
2022-12-12T13:15:42.466Z,39.17
2022-12-12T13:18:18.055Z,39.85
2022-12-12T13:21:22.141Z,45.63
2022-12-12T13:24:19.222Z,50.40
2022-12-12T13:27:24.078Z,44.65
2022-12-12T13:30:08.356Z,48.72
2022-12-12T13:32:55.216Z,49.60
2022-12-12T13:35:35.219Z,64.10
2022-12-12T13:38:06.355Z,52.55
2022-12-12T13:40:44.822Z,51.90
2022-12-12T13:43:47.945Z,56.72
2022-12-12T13:46:21.765Z,49.72
2022-12-12T13:49:15.595Z,49.13
2022-12-12T13:51:46.901Z,43.58
2022-12-12T13:54:16.813Z,43.72
2022-12-12T13:57:08.250Z,37.80
2022-12-12T13:59:57.840Z,45.70
2022-12-12T14:02:34.304Z,50.70
2022-12-12T14:05:11.919Z,45.65
2022-12-12T14:07:53.688Z,46.72
2022-12-12T14:10:41.135Z,40.60
2022-12-12T14:13:29.398Z,45.80
2022-12-12T14:16:16.923Z,37.83
2022-12-12T14:18:52.811Z,37.58
2022-12-12T14:21:37.256Z,38.10
2022-12-12T14:24:32.542Z,69.95
2022-12-12T14:27:07.138Z,43.38
2022-12-12T14:29:45.021Z,45.55
2022-12-12T14:32:17.507Z,38.55
2022-12-12T14:35:11.469Z,43.53
2022-12-12T14:37:53.236Z,47.63
2022-12-12T14:40:40.964Z,48.60
2022-12-12T14:43:23.669Z,56.55
2022-12-12T14:45:53.461Z,63.05
2022-12-12T14:48:34.379Z,68.40
2022-12-12T14:51:30.170Z,70.18
2022-12-12T14:54:01.846Z,61.33
2022-12-12T14:56:52.581Z,56.33
2022-12-12T14:59:25.067Z,55.78
2022-12-12T15:01:58.487Z,55.70
2022-12-12T15:04:30.149Z,53.38
2022-12-12T15:07:01.337Z,52.75
2022-12-12T15:09:39.913Z,46.50
2022-12-12T15:12:12.784Z,42.85
2022-12-12T15:15:02.771Z,44.03
2022-12-12T15:17:38.189Z,49.35
2022-12-12T15:20:16.821Z,52.00
2022-12-12T15:23:03.674Z,63.08
2022-12-12T15:25:56.907Z,64.35
2022-12-12T15:28:27.888Z,77.15
2022-12-12T15:30:58.264Z,79.50
2022-12-12T15:33:30.031Z,83.53
2022-12-12T15:36:08.409Z,87.80
2022-12-12T15:38:39.289Z,97.18
2022-12-12T15:41:13.773Z,102.82
2022-12-12T15:43:45.908Z,104.72
2022-12-12T15:46:18.564Z,95.32
2022-12-12T15:48:51.131Z,97.93
2022-12-12T15:51:25.334Z,91.90
2022-12-12T15:53:57.991Z,89.03
2022-12-12T15:56:32.253Z,92.03
2022-12-12T15:59:11.099Z,93.13
2022-12-12T16:01:41.557Z,98.20
2022-12-12T16:04:11.550Z,104.68
2022-12-12T16:06:47.704Z,99.60
2022-12-12T16:09:26.597Z,106.05
2022-12-12T16:11:58.449Z,110.72
2022-12-12T16:14:42.073Z,131.47
2022-12-12T16:17:26.620Z,140.63
2022-12-12T16:20:01.764Z,132.40
2022-12-12T16:22:43.940Z,125.22
2022-12-12T16:25:28.058Z,122.57
2022-12-12T16:28:07.252Z,121.07
2022-12-12T16:30:39.430Z,125.35
2022-12-12T16:33:24.285Z,125.43
2022-12-12T16:35:54.869Z,128.35
2022-12-12T16:38:25.555Z,127.35
2022-12-12T16:40:57.117Z,127.57
2022-12-12T16:43:30.570Z,122.20
2022-12-12T16:46:02.041Z,120.00
2022-12-12T16:48:43.275Z,106.40
2022-12-12T16:51:20.210Z,95.43
2022-12-12T16:53:50.638Z,83.63
2022-12-12T16:56:22.872Z,76.45
2022-12-12T16:58:54.790Z,66.43
2022-12-12T17:01:28.057Z,61.83
2022-12-12T17:03:59.207Z,61.15
2022-12-12T17:06:30.040Z,68.68
2022-12-12T17:09:00.215Z,74.50
2022-12-12T17:11:30.077Z,81.43
2022-12-12T17:14:00.115Z,87.63
2022-12-12T17:16:29.784Z,95.78
2022-12-12T17:18:59.779Z,101.05
2022-12-12T17:21:29.371Z,107.22
2022-12-12T17:23:59.131Z,118.68
2022-12-12T17:26:29.064Z,138.18
2022-12-12T17:28:58.736Z,144.48
2022-12-12T17:31:28.354Z,145.85
2022-12-12T17:33:58.239Z,141.73
2022-12-12T17:36:27.880Z,137.45
2022-12-12T17:38:59.031Z,131.60
2022-12-12T17:41:29.315Z,130.45
2022-12-12T17:44:01.212Z,125.35
2022-12-12T17:46:31.693Z,115.68
2022-12-12T17:49:03.395Z,108.63
2022-12-12T17:51:34.071Z,101.97
2022-12-12T17:54:04.762Z,87.63
2022-12-12T17:56:35.407Z,75.55
2022-12-12T17:59:08.378Z,79.53
2022-12-12T18:01:39.494Z,84.07
2022-12-12T18:04:10.179Z,82.38
2022-12-12T18:06:40.872Z,71.60
2022-12-12T18:09:10.669Z,64.53
2022-12-12T18:11:43.295Z,58.50
2022-12-12T18:14:20.247Z,57.83
2022-12-12T18:16:52.576Z,62.42
2022-12-12T18:19:26.986Z,64.97
2022-12-12T18:22:01.201Z,70.40
2022-12-12T18:24:33.696Z,72.07
2022-12-12T18:27:04.995Z,73.47
2022-12-12T18:29:34.751Z,67.20
2022-12-12T18:32:06.105Z,67.63
2022-12-12T18:34:35.934Z,67.33
2022-12-12T18:37:05.308Z,68.38
2022-12-12T18:39:35.157Z,67.45
2022-12-12T18:42:04.671Z,68.55
2022-12-12T18:44:34.645Z,64.28
2022-12-12T18:47:04.308Z,65.07
2022-12-12T18:49:33.617Z,63.55
2022-12-12T18:52:05.833Z,62.70
2022-12-12T18:54:35.518Z,66.38
2022-12-12T18:57:04.974Z,65.70
2022-12-12T18:59:35.000Z,62.53
2022-12-12T19:02:04.882Z,56.97
2022-12-12T19:04:34.947Z,59.25
2022-12-12T19:07:04.569Z,68.38
2022-12-12T19:09:34.210Z,70.75
2022-12-12T19:12:04.088Z,62.22
2022-12-12T19:14:59.856Z,61.55
2022-12-12T19:17:26.419Z,56.83
2022-12-12T19:19:56.444Z,56.03
2022-12-12T19:25:18.599Z,50.92
2022-12-12T19:27:48.799Z,49.07
2022-12-12T19:30:18.899Z,50.28
2022-12-12T19:32:50.270Z,50.35
2022-12-12T19:35:20.006Z,47.08
2022-12-12T19:37:49.709Z,45.85
2022-12-12T19:40:20.033Z,46.08
2022-12-12T19:42:49.904Z,46.78
2022-12-12T19:45:19.643Z,48.92
2022-12-12T19:47:48.946Z,46.65
2022-12-12T19:50:18.835Z,45.70
2022-12-12T19:52:48.369Z,46.42
2022-12-12T19:55:18.016Z,44.55
2022-12-12T19:57:47.670Z,44.92
2022-12-12T20:00:20.872Z,47.35
2022-12-12T20:02:50.802Z,46.28
2022-12-12T20:05:20.731Z,46.50
2022-12-12T20:07:50.624Z,50.85
2022-12-12T20:10:20.211Z,50.28
2022-12-12T20:12:58.267Z,53.25
2022-12-12T20:15:28.651Z,53.85
2022-12-12T20:18:01.268Z,59.05
2022-12-12T20:20:31.100Z,62.25
2022-12-12T20:23:00.879Z,62.45
2022-12-12T20:25:30.716Z,59.78
2022-12-12T20:28:00.606Z,57.60
2022-12-12T20:30:30.305Z,56.42
2022-12-12T20:32:59.969Z,52.58
2022-12-12T20:35:30.450Z,46.00
2022-12-12T20:38:00.207Z,38.45
2022-12-12T20:40:30.318Z,38.60
2022-12-12T20:43:03.417Z,38.38
2022-12-12T20:45:36.793Z,34.90
2022-12-12T20:48:07.840Z,31.92
2022-12-12T20:50:37.721Z,29.10
2022-12-12T20:53:07.400Z,29.65
2022-12-12T20:55:38.368Z,29.55
2022-12-12T20:58:08.098Z,30.52
2022-12-12T21:00:40.188Z,30.60
2022-12-12T21:03:09.881Z,28.83
2022-12-12T21:05:39.902Z,28.13
2022-12-12T21:08:09.616Z,27.63
2022-12-12T21:10:39.018Z,29.17
2022-12-12T21:13:08.805Z,28.70
2022-12-12T21:15:38.880Z,28.30
2022-12-12T21:18:08.881Z,27.95
2022-12-12T21:20:38.555Z,30.88
2022-12-12T21:23:08.209Z,28.88
2022-12-12T21:25:38.346Z,29.73
2022-12-12T21:28:08.576Z,27.25
2022-12-12T21:30:38.365Z,26.00
2022-12-12T21:33:07.998Z,30.17
2022-12-12T21:35:38.711Z,36.45
2022-12-12T21:38:08.605Z,37.80
2022-12-12T21:40:38.637Z,44.45
2022-12-12T21:43:08.262Z,47.45
2022-12-12T21:45:41.308Z,44.63
2022-12-12T21:48:10.979Z,42.53
2022-12-12T21:50:40.372Z,43.13
2022-12-12T21:53:28.533Z,43.30
2022-12-12T21:56:03.906Z,48.30
2022-12-12T21:58:34.835Z,47.83
2022-12-12T22:01:08.989Z,43.95
2022-12-12T22:03:39.471Z,43.88
2022-12-12T22:06:14.796Z,42.97
2022-12-12T22:08:45.322Z,44.97
2022-12-12T22:11:40.485Z,42.85
2022-12-12T22:14:08.059Z,38.88
2022-12-12T22:16:39.070Z,42.67
2022-12-12T22:19:12.878Z,38.90
2022-12-12T22:21:42.499Z,38.15
2022-12-12T22:24:13.153Z,35.42
2022-12-12T22:26:47.178Z,39.03
2022-12-12T22:29:19.966Z,38.20
2022-12-12T22:31:53.365Z,38.00
2022-12-12T22:34:25.184Z,35.47
2022-12-12T22:36:55.396Z,28.52
2022-12-12T22:39:29.808Z,31.67
2022-12-12T22:41:59.476Z,29.08
2022-12-12T22:44:28.955Z,27.95
2022-12-12T22:46:58.636Z,28.10
2022-12-12T22:49:28.823Z,28.45
2022-12-12T22:51:59.600Z,28.90
2022-12-12T22:54:29.377Z,27.85
2022-12-12T22:56:59.358Z,29.95
2022-12-12T22:59:29.186Z,28.85
2022-12-12T23:01:59.137Z,30.00
2022-12-12T23:04:28.747Z,28.83
2022-12-12T23:06:58.907Z,27.88
2022-12-12T23:09:28.542Z,29.30
2022-12-12T23:11:58.044Z,28.00
2022-12-12T23:14:28.540Z,26.77
2022-12-12T23:16:58.342Z,30.88
2022-12-12T23:19:29.806Z,29.40
2022-12-12T23:21:59.700Z,36.17
2022-12-12T23:24:29.138Z,39.53
2022-12-12T23:26:58.736Z,40.40
2022-12-12T23:29:28.772Z,41.22
2022-12-12T23:31:59.714Z,44.13
2022-12-12T23:34:29.499Z,45.67
2022-12-12T23:36:59.738Z,42.67
2022-12-12T23:39:30.014Z,40.00
2022-12-12T23:41:59.902Z,37.50
2022-12-12T23:44:30.234Z,38.42
2022-12-12T23:46:59.595Z,38.10
2022-12-12T23:49:29.250Z,42.70
2022-12-12T23:52:00.670Z,42.42
2022-12-12T23:54:33.208Z,36.83
2022-12-12T23:57:04.058Z,33.17
2022-12-12T23:59:33.732Z,34.65
